Tangara, Brazil
Current Conditions -  °F | °C
As of 9:00 PM on Tuesday 25 Nov 2014 (Local Time) from SBCH Reporting Station
Broken Clouds Broken Clouds  
Wind Chill: 70°   Ceiling: 10000
Heat Index: 70°   Visibility: 6mi
Dew Point: 66°   Wind: 17mph
Humidity: 88%   Direction: 110°ESE
Pressure: 29.77"   Gusts: NA
Location:  27.1°S, 51.25°W
Report Text: SBCH 252300Z 11015KT 9999 FEW005 SCT035 BKN100 21/19 Q1008
Loading
Personal Weather Stations






























Interactive Weather Map New forecast layout! Learn more

10-Day Weather Forecast

Advertisements
Track Severe Weather on mobile